createdAt,value
2022-12-25T00:01:27.986Z,23.42
2022-12-25T00:03:54.622Z,23.73
2022-12-25T00:06:21.293Z,20.42
2022-12-25T00:08:47.962Z,23.35
2022-12-25T00:11:17.470Z,23.45
2022-12-25T00:13:44.681Z,20.20
2022-12-25T00:16:16.023Z,19.92
2022-12-25T00:18:42.959Z,22.83
2022-12-25T00:21:15.196Z,18.38
2022-12-25T00:23:45.142Z,18.70
2022-12-25T00:26:15.478Z,19.73
2022-12-25T00:28:42.644Z,25.25
2022-12-25T00:31:12.488Z,27.00
2022-12-25T00:33:41.173Z,31.33
2022-12-25T00:36:08.918Z,30.15
2022-12-25T00:38:37.199Z,38.03
2022-12-25T00:41:15.272Z,35.50
2022-12-25T00:43:42.337Z,33.95
2022-12-25T00:46:11.022Z,28.33
2022-12-25T00:48:38.558Z,33.33
2022-12-25T00:51:08.544Z,31.55
2022-12-25T00:53:35.136Z,25.60
2022-12-25T00:56:04.705Z,32.30
2022-12-25T00:58:33.571Z,26.25
2022-12-25T01:01:00.557Z,26.50
2022-12-25T01:03:27.336Z,18.52
2022-12-25T01:06:00.207Z,18.50
2022-12-25T01:08:27.958Z,18.58
2022-12-25T01:11:00.219Z,16.57
2022-12-25T01:13:27.607Z,13.18
2022-12-25T01:15:54.709Z,18.42
2022-12-25T01:18:23.052Z,19.65
2022-12-25T01:20:49.685Z,15.40
2022-12-25T01:23:17.145Z,28.45
2022-12-25T01:25:43.806Z,21.63
2022-12-25T01:28:10.316Z,24.40
2022-12-25T01:30:36.810Z,20.50
2022-12-25T01:33:03.491Z,20.17
2022-12-25T01:35:30.107Z,22.42
2022-12-25T01:37:56.827Z,13.93
2022-12-25T01:40:23.510Z,16.08
2022-12-25T01:42:50.172Z,15.77
2022-12-25T01:45:43.831Z,16.65
2022-12-25T01:48:17.142Z,17.23
2022-12-25T01:50:47.623Z,19.38
2022-12-25T01:53:14.435Z,18.67
2022-12-25T01:55:44.321Z,21.33
2022-12-25T01:58:10.927Z,25.98
2022-12-25T02:00:37.498Z,20.63
2022-12-25T02:03:04.928Z,21.10
2022-12-25T02:05:33.883Z,22.77
2022-12-25T02:08:08.560Z,21.27
2022-12-25T02:10:35.141Z,39.88
2022-12-25T02:13:02.348Z,26.10
2022-12-25T02:15:40.484Z,29.83
2022-12-25T02:18:14.897Z,33.28
2022-12-25T02:20:50.852Z,36.65
2022-12-25T02:23:38.473Z,28.45
2022-12-25T02:26:30.811Z,26.17
2022-12-25T02:29:05.197Z,34.83
2022-12-25T02:31:31.836Z,23.23
2022-12-25T02:34:16.821Z,21.75
2022-12-25T02:36:53.901Z,21.65
2022-12-25T02:40:00.741Z,26.67
2022-12-25T02:42:57.811Z,22.15
2022-12-25T02:45:57.853Z,21.45
2022-12-25T02:48:49.128Z,21.55
2022-12-25T02:51:37.937Z,24.75
2022-12-25T02:54:28.645Z,20.90
2022-12-25T02:57:17.040Z,18.75
2022-12-25T03:00:05.979Z,24.95
2022-12-25T03:02:52.578Z,23.25
2022-12-25T03:05:41.509Z,23.08
2022-12-25T03:08:13.958Z,21.23
2022-12-25T03:11:03.661Z,28.92
2022-12-25T03:13:36.796Z,33.13
2022-12-25T03:16:22.916Z,33.00
2022-12-25T03:18:49.576Z,32.83
2022-12-25T03:21:34.840Z,30.48
2022-12-25T03:24:20.677Z,31.50
2022-12-25T03:26:56.656Z,28.92
2022-12-25T03:29:49.427Z,28.00
2022-12-25T03:32:22.710Z,33.13
2022-12-25T03:35:25.819Z,31.40
2022-12-25T03:38:35.640Z,28.48
2022-12-25T03:41:35.869Z,30.55
2022-12-25T03:44:35.020Z,32.30
2022-12-25T03:47:26.801Z,31.85
2022-12-25T03:50:25.796Z,31.35
2022-12-25T03:53:13.321Z,25.33
2022-12-25T03:55:59.787Z,26.15
2022-12-25T03:58:45.981Z,35.35
2022-12-25T04:01:32.565Z,23.52
2022-12-25T04:04:17.581Z,28.60
2022-12-25T04:07:02.727Z,31.55
2022-12-25T04:09:47.941Z,33.28
2022-12-25T04:12:32.797Z,33.92
2022-12-25T04:15:18.221Z,31.35
2022-12-25T04:18:03.218Z,27.77
2022-12-25T04:20:48.547Z,35.65
2022-12-25T04:26:19.384Z,26.35
2022-12-25T04:29:04.721Z,32.85
2022-12-25T04:34:34.962Z,34.38
2022-12-25T04:37:01.524Z,34.10
2022-12-25T04:39:28.043Z,30.98
2022-12-25T04:41:54.594Z,25.67
2022-12-25T04:44:21.171Z,28.35
2022-12-25T04:46:47.683Z,25.80
2022-12-25T04:49:14.181Z,28.92
2022-12-25T04:51:40.735Z,24.38
2022-12-25T04:54:07.312Z,31.35
2022-12-25T04:56:34.471Z,34.10
2022-12-25T04:59:03.025Z,37.03
2022-12-25T05:01:29.884Z,34.15
2022-12-25T05:03:56.676Z,31.58
2022-12-25T05:06:23.322Z,32.15
2022-12-25T05:08:49.930Z,41.17
2022-12-25T05:11:17.069Z,33.03
2022-12-25T05:13:44.373Z,35.22
2022-12-25T05:16:16.926Z,38.45
2022-12-25T05:18:44.191Z,32.65
2022-12-25T05:21:12.424Z,39.00
2022-12-25T05:23:39.366Z,36.17
2022-12-25T05:26:07.265Z,36.25
2022-12-25T05:28:35.265Z,37.05
2022-12-25T05:31:02.228Z,33.70
2022-12-25T05:33:28.838Z,30.15
2022-12-25T05:35:55.336Z,33.83
2022-12-25T05:38:21.876Z,37.85
2022-12-25T05:40:51.716Z,46.63
2022-12-25T05:43:19.649Z,38.47
2022-12-25T05:45:46.328Z,38.70
2022-12-25T05:48:13.041Z,39.08
2022-12-25T05:50:39.692Z,32.45
2022-12-25T05:53:08.820Z,33.42
2022-12-25T05:55:41.070Z,35.00
2022-12-25T05:58:08.422Z,36.33
2022-12-25T06:00:35.392Z,39.42
2022-12-25T06:03:02.074Z,51.58
2022-12-25T06:05:28.775Z,37.03
2022-12-25T06:07:55.524Z,31.90
2022-12-25T06:10:22.369Z,34.45
2022-12-25T06:12:48.932Z,37.40
2022-12-25T06:15:15.576Z,33.38
2022-12-25T06:17:42.124Z,33.03
2022-12-25T06:20:09.120Z,38.45
2022-12-25T06:22:35.718Z,35.45
2022-12-25T06:25:02.627Z,32.88
2022-12-25T06:27:29.154Z,35.05
2022-12-25T06:29:55.792Z,32.35
2022-12-25T06:32:22.398Z,31.95
2022-12-25T06:34:49.068Z,31.70
2022-12-25T06:37:15.651Z,30.42
2022-12-25T06:39:42.258Z,35.95
2022-12-25T06:42:09.166Z,33.28
2022-12-25T06:44:35.732Z,32.08
2022-12-25T06:47:02.354Z,35.03
2022-12-25T06:49:28.990Z,41.38
2022-12-25T06:51:55.948Z,39.30
2022-12-25T06:54:22.616Z,23.83
2022-12-25T06:56:49.892Z,28.35
2022-12-25T06:59:16.530Z,29.00
2022-12-25T07:01:49.464Z,27.67
2022-12-25T07:04:21.305Z,29.02
2022-12-25T07:06:47.867Z,28.83
2022-12-25T07:09:14.598Z,27.67
2022-12-25T07:11:41.274Z,38.40
2022-12-25T07:14:07.959Z,61.00
2022-12-25T07:16:34.709Z,59.13
2022-12-25T07:19:01.436Z,34.15
2022-12-25T07:21:27.997Z,26.40
2022-12-25T07:23:54.566Z,30.52
2022-12-25T07:26:21.285Z,32.75
2022-12-25T07:28:47.880Z,29.20
2022-12-25T07:31:16.514Z,29.42
2022-12-25T07:33:43.954Z,29.10
2022-12-25T07:36:12.962Z,30.58
2022-12-25T07:38:41.042Z,31.45
2022-12-25T07:41:10.240Z,28.85
2022-12-25T07:43:37.121Z,31.42
2022-12-25T07:46:05.170Z,32.42
2022-12-25T07:48:33.945Z,29.33
2022-12-25T07:51:03.542Z,32.45
2022-12-25T07:53:30.221Z,29.42
2022-12-25T07:56:05.467Z,30.92
2022-12-25T07:58:35.321Z,32.42
2022-12-25T08:01:07.619Z,36.28
2022-12-25T08:03:35.058Z,34.15
2022-12-25T08:06:08.201Z,31.83
2022-12-25T08:08:36.227Z,36.13
2022-12-25T08:11:03.230Z,33.45
2022-12-25T08:13:34.443Z,35.47
2022-12-25T08:16:03.035Z,35.83
2022-12-25T08:18:32.856Z,34.10
2022-12-25T08:21:05.011Z,37.80
2022-12-25T08:23:34.416Z,32.03
2022-12-25T08:26:05.476Z,31.83
2022-12-25T08:28:36.070Z,32.63
2022-12-25T08:31:27.240Z,35.63
2022-12-25T08:33:56.629Z,30.17
2022-12-25T08:36:23.653Z,35.05
2022-12-25T08:38:55.709Z,36.65
2022-12-25T08:43:51.795Z,32.17
2022-12-25T08:46:18.574Z,38.88
2022-12-25T08:48:46.345Z,33.40
2022-12-25T08:51:16.404Z,34.63
2022-12-25T08:53:44.225Z,32.10
2022-12-25T08:56:11.369Z,32.40
2022-12-25T08:58:38.427Z,39.42
2022-12-25T09:01:05.842Z,34.55
2022-12-25T09:03:32.718Z,32.67
2022-12-25T09:06:04.512Z,38.22
2022-12-25T09:08:31.315Z,36.80
2022-12-25T09:11:10.256Z,25.83
2022-12-25T09:13:37.966Z,33.78
2022-12-25T09:16:09.841Z,31.02
2022-12-25T09:18:37.121Z,32.08
2022-12-25T09:21:06.388Z,35.78
2022-12-25T09:23:35.454Z,33.63
2022-12-25T09:26:04.504Z,28.00
2022-12-25T09:28:32.138Z,31.38
2022-12-25T09:30:59.375Z,26.25
2022-12-25T09:33:26.062Z,24.45
2022-12-25T09:35:54.657Z,23.55
2022-12-25T09:38:21.533Z,27.27
2022-12-25T09:40:48.247Z,23.55
2022-12-25T09:43:21.345Z,29.90
2022-12-25T09:45:48.069Z,31.38
2022-12-25T09:48:16.522Z,30.40
2022-12-25T09:51:00.114Z,31.05
2022-12-25T09:53:38.664Z,26.30
2022-12-25T09:56:16.714Z,24.25
2022-12-25T09:58:43.908Z,27.60
2022-12-25T10:01:39.258Z,27.60
2022-12-25T10:04:12.195Z,31.98
2022-12-25T10:06:38.784Z,26.85
2022-12-25T10:09:20.541Z,33.17
2022-12-25T10:12:00.451Z,27.85
2022-12-25T10:14:35.478Z,29.58
2022-12-25T10:17:09.293Z,23.42
2022-12-25T10:19:41.606Z,26.92
2022-12-25T10:22:27.806Z,24.50
2022-12-25T10:24:58.071Z,25.02
2022-12-25T10:27:42.919Z,29.60
2022-12-25T10:30:16.002Z,24.67
2022-12-25T10:32:44.534Z,24.77
2022-12-25T10:35:16.886Z,28.67
2022-12-25T10:37:46.509Z,27.52
2022-12-25T10:40:25.058Z,22.77
2022-12-25T10:43:50.066Z,29.98
2022-12-25T10:46:17.993Z,34.85
2022-12-25T10:48:56.171Z,29.00
2022-12-25T10:51:33.563Z,34.10
2022-12-25T10:54:02.788Z,30.83
2022-12-25T10:56:29.987Z,29.77
2022-12-25T10:59:07.388Z,31.00
2022-12-25T11:01:34.259Z,26.27
2022-12-25T11:04:01.164Z,29.58
2022-12-25T11:06:31.588Z,28.40
2022-12-25T11:09:00.790Z,31.23
2022-12-25T11:11:28.926Z,32.97
2022-12-25T11:14:01.901Z,35.47
2022-12-25T11:16:40.346Z,33.13
2022-12-25T11:19:33.220Z,30.08
2022-12-25T11:22:02.608Z,36.20
2022-12-25T11:24:31.703Z,37.05
2022-12-25T11:27:01.521Z,37.75
2022-12-25T11:30:04.287Z,34.05
2022-12-25T11:33:06.867Z,33.80
2022-12-25T11:35:46.757Z,90.05
2022-12-25T11:38:13.800Z,68.50
2022-12-25T11:40:49.219Z,68.38
2022-12-25T11:43:23.732Z,58.15
2022-12-25T11:46:09.231Z,47.42
2022-12-25T11:48:50.102Z,66.68
2022-12-25T11:51:17.977Z,36.97
2022-12-25T11:53:52.933Z,40.83
2022-12-25T11:59:27.803Z,37.17
2022-12-25T12:02:11.131Z,33.22
2022-12-25T12:04:46.579Z,35.53
2022-12-25T12:07:29.443Z,31.75
2022-12-25T12:10:30.336Z,40.35
2022-12-25T12:13:15.640Z,28.20
2022-12-25T12:18:33.009Z,21.42
2022-12-25T12:21:30.358Z,22.02
2022-12-25T12:24:26.131Z,30.48
2022-12-25T12:27:02.656Z,30.85
2022-12-25T12:29:39.305Z,32.13
2022-12-25T12:32:06.659Z,29.55
2022-12-25T12:34:42.774Z,33.95
2022-12-25T12:37:40.694Z,29.02
2022-12-25T12:40:22.100Z,28.77
2022-12-25T12:42:51.123Z,26.42
2022-12-25T12:45:24.013Z,35.28
2022-12-25T12:47:52.608Z,30.23
2022-12-25T12:50:42.612Z,30.35
2022-12-25T12:58:33.731Z,31.48
2022-12-25T14:41:53.851Z,27.15
2022-12-25T14:44:36.115Z,30.60
2022-12-25T14:47:20.914Z,26.50
2022-12-25T14:49:48.229Z,27.95
2022-12-25T14:52:42.305Z,30.25
2022-12-25T14:55:20.251Z,30.10
2022-12-25T14:57:56.092Z,25.20
2022-12-25T15:00:26.710Z,33.20
2022-12-25T15:02:56.021Z,29.20
2022-12-25T15:05:33.623Z,30.80
2022-12-25T15:08:11.131Z,29.58
2022-12-25T15:13:26.601Z,24.23
2022-12-25T15:16:14.627Z,23.88
2022-12-25T15:18:44.056Z,23.75
2022-12-25T15:21:16.853Z,24.42
2022-12-25T15:23:43.555Z,22.85
2022-12-25T15:26:13.676Z,25.33
2022-12-25T15:28:40.240Z,31.40
2022-12-25T15:31:30.173Z,28.58
2022-12-25T15:34:00.430Z,53.95
2022-12-25T15:36:27.650Z,36.17
2022-12-25T15:38:54.748Z,32.60
2022-12-25T15:41:46.335Z,30.67
2022-12-25T15:44:13.062Z,33.72
2022-12-25T15:46:39.739Z,31.90
2022-12-25T15:49:06.356Z,31.00
2022-12-25T15:51:33.329Z,33.03
2022-12-25T15:53:59.889Z,29.77
2022-12-25T15:56:27.039Z,28.60
2022-12-25T15:58:53.605Z,28.75
2022-12-25T16:01:21.369Z,23.60
2022-12-25T16:03:50.140Z,24.95
2022-12-25T16:06:18.330Z,22.45
2022-12-25T16:08:45.678Z,22.85
2022-12-25T16:11:12.536Z,21.25
2022-12-25T16:13:39.122Z,18.55
2022-12-25T16:16:07.002Z,19.83
2022-12-25T16:18:33.821Z,24.75
2022-12-25T16:21:00.573Z,21.13
2022-12-25T16:23:27.393Z,19.73
2022-12-25T16:25:54.036Z,21.92
2022-12-25T16:28:20.561Z,18.85
2022-12-25T16:30:47.255Z,18.70
2022-12-25T16:33:13.927Z,19.20
2022-12-25T16:35:40.507Z,19.25
2022-12-25T16:38:07.061Z,21.20
2022-12-25T16:40:34.201Z,15.18
2022-12-25T16:43:00.801Z,21.35
2022-12-25T16:45:27.482Z,15.10
2022-12-25T16:47:54.130Z,15.90
2022-12-25T16:50:20.711Z,13.02
2022-12-25T16:52:47.412Z,14.60
2022-12-25T16:55:14.042Z,20.60
2022-12-25T16:57:40.637Z,17.95
2022-12-25T17:00:08.730Z,16.75
2022-12-25T17:02:35.451Z,21.52
2022-12-25T17:05:02.410Z,19.15
2022-12-25T17:07:28.957Z,19.35
2022-12-25T17:09:57.178Z,23.85
2022-12-25T17:12:23.779Z,19.38
2022-12-25T17:14:50.316Z,23.05
2022-12-25T17:17:16.858Z,20.55
2022-12-25T17:19:43.448Z,15.73
2022-12-25T17:22:10.035Z,17.20
2022-12-25T17:24:37.445Z,14.65
2022-12-25T17:27:04.408Z,17.75
2022-12-25T17:29:32.064Z,15.88
2022-12-25T17:31:58.799Z,14.02
2022-12-25T17:34:25.451Z,12.80
2022-12-25T17:36:53.519Z,26.05
2022-12-25T17:39:20.056Z,25.25
2022-12-25T17:41:49.444Z,32.00
2022-12-25T17:44:16.609Z,23.67
2022-12-25T17:46:43.683Z,18.65
2022-12-25T17:49:15.672Z,19.02
2022-12-25T17:51:42.362Z,19.30
2022-12-25T17:54:09.641Z,16.40
2022-12-25T17:56:36.977Z,21.83
2022-12-25T17:59:09.742Z,15.45
2022-12-25T18:01:38.850Z,12.30
2022-12-25T18:04:06.739Z,14.13
2022-12-25T18:06:36.156Z,13.40
2022-12-25T18:09:02.843Z,15.13
2022-12-25T18:11:32.882Z,13.18
2022-12-25T18:14:02.584Z,10.68
2022-12-25T18:18:59.649Z,11.70
2022-12-25T18:21:26.657Z,14.85
2022-12-25T18:23:53.250Z,17.27
2022-12-25T18:26:20.930Z,13.18
2022-12-25T18:28:48.894Z,13.38
2022-12-25T18:31:21.508Z,14.55
2022-12-25T18:33:49.125Z,16.30
2022-12-25T18:36:21.070Z,13.00
2022-12-25T18:38:48.968Z,15.32
2022-12-25T18:41:15.980Z,15.50
2022-12-25T18:43:53.548Z,16.50
2022-12-25T18:46:24.970Z,14.85
2022-12-25T18:48:52.916Z,12.82
2022-12-25T18:51:19.587Z,12.90
2022-12-25T18:53:46.303Z,12.90
2022-12-25T18:56:18.294Z,13.05
2022-12-25T18:58:46.800Z,19.65
2022-12-25T19:01:24.130Z,18.95
2022-12-25T19:03:53.146Z,15.73
2022-12-25T19:06:33.952Z,18.30
2022-12-25T19:09:00.517Z,14.23
2022-12-25T19:11:47.101Z,10.75
2022-12-25T19:14:14.208Z,11.13
2022-12-25T19:16:41.147Z,12.32
2022-12-25T19:19:07.803Z,12.73
2022-12-25T19:21:34.337Z,15.05
2022-12-25T19:24:00.929Z,13.27
2022-12-25T19:26:28.036Z,13.13
2022-12-25T19:29:00.946Z,11.13
2022-12-25T19:31:27.567Z,10.10
2022-12-25T19:33:54.192Z,11.77
2022-12-25T19:36:20.832Z,10.20
2022-12-25T19:38:47.343Z,12.60
2022-12-25T19:41:17.031Z,12.13
2022-12-25T19:43:45.687Z,12.20
2022-12-25T19:46:18.847Z,16.27
2022-12-25T19:48:48.817Z,13.82
2022-12-25T19:51:22.058Z,13.60
2022-12-25T19:53:48.753Z,10.77
2022-12-25T19:56:15.716Z,10.73
2022-12-25T19:58:42.499Z,10.48
2022-12-25T20:01:19.699Z,10.88
2022-12-25T20:03:47.520Z,10.00
2022-12-25T20:06:21.926Z,13.07
2022-12-25T20:08:52.710Z,13.98
2022-12-25T20:11:20.636Z,12.13
2022-12-25T20:13:47.367Z,11.05
2022-12-25T20:16:13.962Z,9.55
2022-12-25T20:18:40.738Z,14.65
2022-12-25T20:21:14.261Z,11.85
2022-12-25T20:23:42.840Z,11.00
2022-12-25T20:26:10.969Z,15.55
2022-12-25T20:28:37.975Z,13.43
2022-12-25T20:31:29.624Z,10.82
2022-12-25T20:33:58.059Z,16.30
2022-12-25T20:36:26.571Z,14.85
2022-12-25T20:38:55.019Z,13.68
2022-12-25T20:41:27.354Z,10.50
2022-12-25T20:43:54.871Z,12.27
2022-12-25T20:46:22.483Z,11.40
2022-12-25T20:48:49.224Z,11.88
2022-12-25T20:51:18.695Z,22.23
2022-12-25T20:53:46.165Z,13.98
2022-12-25T20:56:14.804Z,16.83
2022-12-25T20:58:41.945Z,13.70
2022-12-25T21:01:12.173Z,16.33
2022-12-25T21:03:41.667Z,11.63
2022-12-25T21:06:09.000Z,13.95
2022-12-25T21:08:36.607Z,11.98
2022-12-25T21:11:04.299Z,11.70
2022-12-25T21:13:34.431Z,11.23
2022-12-25T21:16:05.213Z,12.65
2022-12-25T21:18:31.799Z,15.23
2022-12-25T21:20:59.514Z,13.93
2022-12-25T21:23:28.944Z,10.75
2022-12-25T21:25:55.510Z,13.30
2022-12-25T21:28:23.133Z,11.35
2022-12-25T21:30:49.857Z,16.20
2022-12-25T21:33:34.781Z,17.20
2022-12-25T21:36:11.872Z,11.80
2022-12-25T21:38:39.049Z,12.65
2022-12-25T21:41:08.804Z,11.32
2022-12-25T21:43:36.766Z,10.90
2022-12-25T21:46:09.076Z,11.90
2022-12-25T21:48:37.280Z,14.82
2022-12-25T21:51:23.861Z,14.15
2022-12-25T21:53:51.039Z,11.70
2022-12-25T21:56:18.051Z,12.27
2022-12-25T21:58:44.716Z,12.90
2022-12-25T22:01:11.917Z,14.18
2022-12-25T22:03:38.648Z,10.50
2022-12-25T22:06:24.000Z,14.20
2022-12-25T22:11:35.860Z,11.82
2022-12-25T22:17:27.020Z,10.63
2022-12-25T22:19:53.762Z,9.15
2022-12-25T22:22:23.103Z,12.20
2022-12-25T22:24:54.878Z,13.55
2022-12-25T22:27:22.090Z,13.20
2022-12-25T22:29:48.672Z,11.45
2022-12-25T22:32:20.439Z,13.98
2022-12-25T22:34:47.553Z,11.95
2022-12-25T22:37:17.608Z,17.30
2022-12-25T22:39:45.224Z,12.63
2022-12-25T22:42:12.355Z,12.25
2022-12-25T22:44:39.046Z,14.43
2022-12-25T22:47:05.568Z,13.13
2022-12-25T22:49:32.095Z,11.97
2022-12-25T22:51:58.610Z,13.90
2022-12-25T22:54:28.450Z,11.18
2022-12-25T22:56:55.222Z,11.93
2022-12-25T22:59:22.971Z,12.48
2022-12-25T23:01:50.824Z,16.25
2022-12-25T23:04:17.724Z,11.60
2022-12-25T23:06:45.107Z,14.90
2022-12-25T23:09:17.542Z,14.02
2022-12-25T23:11:48.818Z,12.55
2022-12-25T23:14:34.011Z,13.32
2022-12-25T23:17:00.547Z,12.52
2022-12-25T23:19:45.949Z,11.85
2022-12-25T23:22:32.183Z,13.50
2022-12-25T23:25:17.831Z,11.35
2022-12-25T23:27:45.580Z,12.98
2022-12-25T23:30:15.342Z,12.10
2022-12-25T23:32:43.407Z,13.50
2022-12-25T23:35:11.124Z,13.27
2022-12-25T23:37:37.682Z,12.73
2022-12-25T23:40:04.795Z,13.50
2022-12-25T23:42:31.289Z,14.90
2022-12-25T23:44:57.832Z,15.57
2022-12-25T23:47:25.310Z,16.58
2022-12-25T23:49:51.829Z,17.02
2022-12-25T23:52:18.358Z,14.73
2022-12-25T23:54:45.090Z,13.88
2022-12-25T23:57:11.629Z,13.07
2022-12-25T23:59:38.238Z,12.18
